sensor_id;sensor_type;location;lat;lon;timestamp;P1;durP1;ratioP1;P2;durP2;ratioP2
61640;SDS011;62201;49.966;8.342;2022-08-04T00:00:22;4.97;;;2.30;;
61640;SDS011;62201;49.966;8.342;2022-08-04T00:05:41;6.43;;;2.65;;
61640;SDS011;62201;49.966;8.342;2022-08-04T00:08:36;9.23;;;2.55;;
61640;SDS011;62201;49.966;8.342;2022-08-04T00:11:19;7.13;;;2.72;;
61640;SDS011;62201;49.966;8.342;2022-08-04T00:13:56;5.80;;;2.60;;
61640;SDS011;62201;49.966;8.342;2022-08-04T00:16:28;7.43;;;2.50;;
61640;SDS011;62201;49.966;8.342;2022-08-04T00:18:57;14.48;;;2.80;;
61640;SDS011;62201;49.966;8.342;2022-08-04T00:21:27;11.40;;;3.07;;
61640;SDS011;62201;49.966;8.342;2022-08-04T00:23:57;7.60;;;2.33;;
61640;SDS011;62201;49.966;8.342;2022-08-04T00:26:25;9.30;;;2.50;;
61640;SDS011;62201;49.966;8.342;2022-08-04T00:28:51;13.52;;;3.05;;
61640;SDS011;62201;49.966;8.342;2022-08-04T00:31:16;6.88;;;2.72;;
61640;SDS011;62201;49.966;8.342;2022-08-04T00:33:43;7.10;;;3.03;;
61640;SDS011;62201;49.966;8.342;2022-08-04T00:36:10;7.68;;;2.95;;
61640;SDS011;62201;49.966;8.342;2022-08-04T00:38:36;6.57;;;2.70;;
61640;SDS011;62201;49.966;8.342;2022-08-04T00:43:34;9.73;;;3.10;;
61640;SDS011;62201;49.966;8.342;2022-08-04T00:49:02;9.82;;;2.92;;
61640;SDS011;62201;49.966;8.342;2022-08-04T00:54:26;7.35;;;3.00;;
61640;SDS011;62201;49.966;8.342;2022-08-04T00:57:05;9.40;;;2.97;;
61640;SDS011;62201;49.966;8.342;2022-08-04T01:00:00;7.38;;;2.45;;
61640;SDS011;62201;49.966;8.342;2022-08-04T01:02:38;8.00;;;2.20;;
61640;SDS011;62201;49.966;8.342;2022-08-04T01:16:08;9.50;;;2.80;;
61640;SDS011;62201;49.966;8.342;2022-08-04T01:24:10;5.55;;;2.92;;
61640;SDS011;62201;49.966;8.342;2022-08-04T01:27:05;9.77;;;2.78;;
61640;SDS011;62201;49.966;8.342;2022-08-04T01:29:51;6.15;;;2.63;;
61640;SDS011;62201;49.966;8.342;2022-08-04T01:32:31;13.90;;;3.28;;
61640;SDS011;62201;49.966;8.342;2022-08-04T01:35:10;5.78;;;3.05;;
61640;SDS011;62201;49.966;8.342;2022-08-04T01:37:47;9.40;;;3.17;;
61640;SDS011;62201;49.966;8.342;2022-08-04T01:40:30;5.05;;;2.90;;
61640;SDS011;62201;49.966;8.342;2022-08-04T01:42:57;11.50;;;2.83;;
61640;SDS011;62201;49.966;8.342;2022-08-04T01:45:25;6.70;;;2.92;;
61640;SDS011;62201;49.966;8.342;2022-08-04T01:47:54;7.30;;;3.08;;
61640;SDS011;62201;49.966;8.342;2022-08-04T01:50:20;9.52;;;2.88;;
61640;SDS011;62201;49.966;8.342;2022-08-04T01:52:46;6.95;;;2.78;;
61640;SDS011;62201;49.966;8.342;2022-08-04T01:55:13;8.55;;;3.03;;
61640;SDS011;62201;49.966;8.342;2022-08-04T01:57:40;5.63;;;2.92;;
61640;SDS011;62201;49.966;8.342;2022-08-04T02:00:07;7.85;;;2.88;;
61640;SDS011;62201;49.966;8.342;2022-08-04T02:02:34;5.75;;;3.00;;
61640;SDS011;62201;49.966;8.342;2022-08-04T02:05:00;7.32;;;2.70;;
61640;SDS011;62201;49.966;8.342;2022-08-04T02:07:47;11.52;;;3.15;;
61640;SDS011;62201;49.966;8.342;2022-08-04T02:10:27;9.77;;;3.00;;
61640;SDS011;62201;49.966;8.342;2022-08-04T02:12:56;7.95;;;2.90;;
61640;SDS011;62201;49.966;8.342;2022-08-04T02:20:58;4.07;;;2.80;;
61640;SDS011;62201;49.966;8.342;2022-08-04T02:23:30;7.15;;;2.90;;
61640;SDS011;62201;49.966;8.342;2022-08-04T02:26:02;8.68;;;2.72;;
61640;SDS011;62201;49.966;8.342;2022-08-04T02:28:34;7.88;;;3.03;;
61640;SDS011;62201;49.966;8.342;2022-08-04T02:34:00;6.83;;;3.10;;
61640;SDS011;62201;49.966;8.342;2022-08-04T02:36:37;6.90;;;3.42;;
61640;SDS011;62201;49.966;8.342;2022-08-04T02:39:05;8.23;;;3.05;;
61640;SDS011;62201;49.966;8.342;2022-08-04T02:41:32;10.07;;;3.13;;
61640;SDS011;62201;49.966;8.342;2022-08-04T02:43:59;8.38;;;3.00;;
61640;SDS011;62201;49.966;8.342;2022-08-04T02:46:27;7.10;;;2.95;;
61640;SDS011;62201;49.966;8.342;2022-08-04T02:48:53;8.40;;;2.88;;
61640;SDS011;62201;49.966;8.342;2022-08-04T02:51:21;7.38;;;3.20;;
61640;SDS011;62201;49.966;8.342;2022-08-04T02:53:49;5.68;;;2.85;;
61640;SDS011;62201;49.966;8.342;2022-08-04T02:56:18;6.28;;;2.85;;
61640;SDS011;62201;49.966;8.342;2022-08-04T02:58:45;7.30;;;2.58;;
61640;SDS011;62201;49.966;8.342;2022-08-04T03:01:15;10.80;;;2.80;;
61640;SDS011;62201;49.966;8.342;2022-08-04T03:03:47;10.63;;;3.13;;
61640;SDS011;62201;49.966;8.342;2022-08-04T03:11:56;9.32;;;2.42;;
61640;SDS011;62201;49.966;8.342;2022-08-04T03:17:30;9.70;;;3.03;;
61640;SDS011;62201;49.966;8.342;2022-08-04T03:25:35;11.63;;;3.20;;
61640;SDS011;62201;49.966;8.342;2022-08-04T03:30:51;9.20;;;2.95;;
61640;SDS011;62201;49.966;8.342;2022-08-04T03:39:06;8.15;;;2.83;;
61640;SDS011;62201;49.966;8.342;2022-08-04T03:42:07;7.20;;;3.20;;
61640;SDS011;62201;49.966;8.342;2022-08-04T03:47:39;6.25;;;2.70;;
61640;SDS011;62201;49.966;8.342;2022-08-04T04:10:07;10.23;;;3.65;;
61640;SDS011;62201;49.966;8.342;2022-08-04T04:13:03;7.40;;;3.47;;
61640;SDS011;62201;49.966;8.342;2022-08-04T04:15:46;10.45;;;3.38;;
61640;SDS011;62201;49.966;8.342;2022-08-04T04:33:16;12.52;;;3.13;;
61640;SDS011;62201;49.966;8.342;2022-08-04T04:54:17;12.17;;;2.93;;
61640;SDS011;62201;49.966;8.342;2022-08-04T05:02:36;5.70;;;2.42;;
61640;SDS011;62201;49.966;8.342;2022-08-04T05:05:29;5.50;;;2.80;;
61640;SDS011;62201;49.966;8.342;2022-08-04T05:13:58;10.80;;;2.65;;
61640;SDS011;62201;49.966;8.342;2022-08-04T05:30:31;10.52;;;2.53;;
61640;SDS011;62201;49.966;8.342;2022-08-04T05:33:02;8.50;;;3.10;;
61640;SDS011;62201;49.966;8.342;2022-08-04T05:35:36;6.90;;;3.03;;
61640;SDS011;62201;49.966;8.342;2022-08-04T05:38:09;10.70;;;3.20;;
61640;SDS011;62201;49.966;8.342;2022-08-04T05:40:41;15.30;;;3.28;;
61640;SDS011;62201;49.966;8.342;2022-08-04T05:43:08;8.73;;;3.10;;
61640;SDS011;62201;49.966;8.342;2022-08-04T05:45:36;10.50;;;2.90;;
61640;SDS011;62201;49.966;8.342;2022-08-04T05:48:02;9.15;;;3.28;;
61640;SDS011;62201;49.966;8.342;2022-08-04T05:50:29;10.25;;;3.30;;
61640;SDS011;62201;49.966;8.342;2022-08-04T05:52:55;11.05;;;3.10;;
61640;SDS011;62201;49.966;8.342;2022-08-04T05:55:23;6.20;;;3.15;;
61640;SDS011;62201;49.966;8.342;2022-08-04T05:57:50;11.88;;;3.88;;
61640;SDS011;62201;49.966;8.342;2022-08-04T06:00:16;12.18;;;3.47;;
61640;SDS011;62201;49.966;8.342;2022-08-04T06:02:43;10.57;;;3.20;;
61640;SDS011;62201;49.966;8.342;2022-08-04T06:05:10;12.73;;;2.97;;
61640;SDS011;62201;49.966;8.342;2022-08-04T06:07:38;10.65;;;3.67;;
61640;SDS011;62201;49.966;8.342;2022-08-04T06:10:04;17.80;;;4.35;;
61640;SDS011;62201;49.966;8.342;2022-08-04T06:12:51;10.43;;;3.25;;
61640;SDS011;62201;49.966;8.342;2022-08-04T06:15:19;17.75;;;3.35;;
61640;SDS011;62201;49.966;8.342;2022-08-04T06:17:50;10.73;;;3.00;;
61640;SDS011;62201;49.966;8.342;2022-08-04T06:20:19;8.27;;;3.03;;
61640;SDS011;62201;49.966;8.342;2022-08-04T06:22:48;9.25;;;2.75;;
61640;SDS011;62201;49.966;8.342;2022-08-04T06:25:18;7.18;;;3.03;;
61640;SDS011;62201;49.966;8.342;2022-08-04T06:27:47;11.35;;;2.75;;
61640;SDS011;62201;49.966;8.342;2022-08-04T06:30:14;14.07;;;2.72;;
61640;SDS011;62201;49.966;8.342;2022-08-04T06:32:43;5.70;;;2.40;;
61640;SDS011;62201;49.966;8.342;2022-08-04T06:35:19;8.35;;;2.75;;
61640;SDS011;62201;49.966;8.342;2022-08-04T06:37:46;9.02;;;2.88;;
61640;SDS011;62201;49.966;8.342;2022-08-04T06:40:13;9.00;;;2.60;;
61640;SDS011;62201;49.966;8.342;2022-08-04T06:42:41;8.63;;;2.50;;
61640;SDS011;62201;49.966;8.342;2022-08-04T06:45:07;9.73;;;3.00;;
61640;SDS011;62201;49.966;8.342;2022-08-04T06:47:35;6.88;;;2.38;;
61640;SDS011;62201;49.966;8.342;2022-08-04T06:50:03;10.15;;;3.40;;
61640;SDS011;62201;49.966;8.342;2022-08-04T06:52:30;5.35;;;2.70;;
61640;SDS011;62201;49.966;8.342;2022-08-04T06:54:55;12.88;;;2.90;;
61640;SDS011;62201;49.966;8.342;2022-08-04T06:57:22;7.00;;;2.72;;
61640;SDS011;62201;49.966;8.342;2022-08-04T06:59:58;13.63;;;2.70;;
61640;SDS011;62201;49.966;8.342;2022-08-04T07:02:28;11.57;;;2.75;;
61640;SDS011;62201;49.966;8.342;2022-08-04T07:04:57;9.13;;;2.35;;
61640;SDS011;62201;49.966;8.342;2022-08-04T07:07:23;7.72;;;2.53;;
61640;SDS011;62201;49.966;8.342;2022-08-04T07:09:49;6.47;;;2.78;;
61640;SDS011;62201;49.966;8.342;2022-08-04T07:12:14;11.45;;;2.90;;
61640;SDS011;62201;49.966;8.342;2022-08-04T07:14:44;6.32;;;2.50;;
61640;SDS011;62201;49.966;8.342;2022-08-04T07:17:10;7.13;;;2.70;;
61640;SDS011;62201;49.966;8.342;2022-08-04T07:19:37;8.77;;;2.63;;
61640;SDS011;62201;49.966;8.342;2022-08-04T07:22:03;8.90;;;2.75;;
61640;SDS011;62201;49.966;8.342;2022-08-04T07:24:31;9.88;;;3.20;;
61640;SDS011;62201;49.966;8.342;2022-08-04T07:26:57;10.63;;;2.42;;
61640;SDS011;62201;49.966;8.342;2022-08-04T07:29:24;14.00;;;2.88;;
61640;SDS011;62201;49.966;8.342;2022-08-04T07:31:50;6.00;;;2.42;;
61640;SDS011;62201;49.966;8.342;2022-08-04T07:34:16;5.40;;;2.58;;
61640;SDS011;62201;49.966;8.342;2022-08-04T07:36:43;11.35;;;2.75;;
61640;SDS011;62201;49.966;8.342;2022-08-04T07:39:08;9.98;;;2.33;;
61640;SDS011;62201;49.966;8.342;2022-08-04T07:41:34;5.65;;;2.53;;
61640;SDS011;62201;49.966;8.342;2022-08-04T07:44:00;9.45;;;2.83;;
61640;SDS011;62201;49.966;8.342;2022-08-04T07:46:26;10.38;;;2.60;;
61640;SDS011;62201;49.966;8.342;2022-08-04T07:48:53;7.93;;;2.45;;
61640;SDS011;62201;49.966;8.342;2022-08-04T07:51:18;13.65;;;2.60;;
61640;SDS011;62201;49.966;8.342;2022-08-04T07:53:45;9.05;;;2.40;;
61640;SDS011;62201;49.966;8.342;2022-08-04T07:56:12;9.25;;;2.60;;
61640;SDS011;62201;49.966;8.342;2022-08-04T07:58:39;5.32;;;2.60;;
61640;SDS011;62201;49.966;8.342;2022-08-04T08:01:04;9.52;;;2.78;;
61640;SDS011;62201;49.966;8.342;2022-08-04T08:03:30;10.45;;;2.80;;
61640;SDS011;62201;49.966;8.342;2022-08-04T08:05:55;6.47;;;2.20;;
61640;SDS011;62201;49.966;8.342;2022-08-04T08:08:21;4.63;;;2.30;;
61640;SDS011;62201;49.966;8.342;2022-08-04T08:10:46;10.23;;;2.28;;
61640;SDS011;62201;49.966;8.342;2022-08-04T08:13:13;8.52;;;2.38;;
61640;SDS011;62201;49.966;8.342;2022-08-04T08:15:39;5.53;;;2.22;;
61640;SDS011;62201;49.966;8.342;2022-08-04T08:18:05;4.88;;;2.30;;
61640;SDS011;62201;49.966;8.342;2022-08-04T08:20:31;7.07;;;2.47;;
61640;SDS011;62201;49.966;8.342;2022-08-04T08:22:57;9.65;;;2.17;;
61640;SDS011;62201;49.966;8.342;2022-08-04T08:25:24;6.15;;;2.33;;
61640;SDS011;62201;49.966;8.342;2022-08-04T08:27:50;7.25;;;2.13;;
61640;SDS011;62201;49.966;8.342;2022-08-04T08:30:15;6.75;;;2.50;;
61640;SDS011;62201;49.966;8.342;2022-08-04T08:32:40;8.70;;;2.20;;
61640;SDS011;62201;49.966;8.342;2022-08-04T08:35:06;8.57;;;2.05;;
61640;SDS011;62201;49.966;8.342;2022-08-04T08:51:36;6.15;;;2.20;;
61640;SDS011;62201;49.966;8.342;2022-08-04T08:54:32;2.90;;;1.77;;
61640;SDS011;62201;49.966;8.342;2022-08-04T08:57:13;7.95;;;2.00;;
61640;SDS011;62201;49.966;8.342;2022-08-04T09:02:56;4.70;;;2.15;;
61640;SDS011;62201;49.966;8.342;2022-08-04T09:05:38;3.17;;;2.15;;
61640;SDS011;62201;49.966;8.342;2022-08-04T09:11:13;9.23;;;2.05;;
61640;SDS011;62201;49.966;8.342;2022-08-04T09:13:47;6.32;;;2.03;;
61640;SDS011;62201;49.966;8.342;2022-08-04T09:21:48;6.75;;;2.45;;
61640;SDS011;62201;49.966;8.342;2022-08-04T09:27:20;4.63;;;2.38;;
61640;SDS011;62201;49.966;8.342;2022-08-04T09:44:00;5.75;;;2.20;;
61640;SDS011;62201;49.966;8.342;2022-08-04T09:46:44;5.43;;;2.22;;
61640;SDS011;62201;49.966;8.342;2022-08-04T09:52:26;4.97;;;1.80;;
61640;SDS011;62201;49.966;8.342;2022-08-04T09:57:52;13.10;;;2.80;;
61640;SDS011;62201;49.966;8.342;2022-08-04T10:00:26;7.85;;;2.00;;
61640;SDS011;62201;49.966;8.342;2022-08-04T10:02:58;3.85;;;2.03;;
61640;SDS011;62201;49.966;8.342;2022-08-04T10:05:35;6.72;;;1.80;;
61640;SDS011;62201;49.966;8.342;2022-08-04T10:08:33;5.78;;;1.80;;
61640;SDS011;62201;49.966;8.342;2022-08-04T10:11:13;5.30;;;1.83;;
61640;SDS011;62201;49.966;8.342;2022-08-04T10:13:56;6.85;;;1.80;;
61640;SDS011;62201;49.966;8.342;2022-08-04T10:19:45;4.97;;;1.90;;
61640;SDS011;62201;49.966;8.342;2022-08-04T10:22:22;9.70;;;2.33;;
61640;SDS011;62201;49.966;8.342;2022-08-04T10:25:00;5.93;;;2.40;;
61640;SDS011;62201;49.966;8.342;2022-08-04T10:30:07;9.77;;;2.15;;
61640;SDS011;62201;49.966;8.342;2022-08-04T10:35:17;6.25;;;1.80;;
61640;SDS011;62201;49.966;8.342;2022-08-04T10:40:19;3.55;;;2.15;;
61640;SDS011;62201;49.966;8.342;2022-08-04T10:51:18;4.18;;;2.00;;
61640;SDS011;62201;49.966;8.342;2022-08-04T10:53:51;4.53;;;2.05;;
61640;SDS011;62201;49.966;8.342;2022-08-04T10:58:55;4.13;;;2.00;;
61640;SDS011;62201;49.966;8.342;2022-08-04T11:01:26;9.07;;;2.20;;
61640;SDS011;62201;49.966;8.342;2022-08-04T11:03:59;4.82;;;1.90;;
61640;SDS011;62201;49.966;8.342;2022-08-04T11:06:29;6.75;;;2.13;;
61640;SDS011;62201;49.966;8.342;2022-08-04T11:08:57;5.72;;;1.75;;
61640;SDS011;62201;49.966;8.342;2022-08-04T11:14:04;5.97;;;2.10;;
61640;SDS011;62201;49.966;8.342;2022-08-04T11:16:43;8.63;;;2.13;;
61640;SDS011;62201;49.966;8.342;2022-08-04T11:22:24;7.20;;;2.17;;
61640;SDS011;62201;49.966;8.342;2022-08-04T11:27:54;4.40;;;1.88;;
61640;SDS011;62201;49.966;8.342;2022-08-04T11:31:13;7.68;;;2.08;;
61640;SDS011;62201;49.966;8.342;2022-08-04T11:36:29;5.25;;;1.80;;
61640;SDS011;62201;49.966;8.342;2022-08-04T11:39:12;3.43;;;1.67;;
61640;SDS011;62201;49.966;8.342;2022-08-04T11:41:51;7.65;;;1.52;;
61640;SDS011;62201;49.966;8.342;2022-08-04T11:47:24;5.22;;;1.65;;
61640;SDS011;62201;49.966;8.342;2022-08-04T11:52:56;2.60;;;1.80;;
61640;SDS011;62201;49.966;8.342;2022-08-04T11:55:24;6.00;;;1.65;;
61640;SDS011;62201;49.966;8.342;2022-08-04T11:57:51;5.15;;;1.70;;
61640;SDS011;62201;49.966;8.342;2022-08-04T12:00:17;4.55;;;2.00;;
61640;SDS011;62201;49.966;8.342;2022-08-04T12:05:20;2.45;;;1.30;;
61640;SDS011;62201;49.966;8.342;2022-08-04T12:08:01;5.60;;;1.50;;
61640;SDS011;62201;49.966;8.342;2022-08-04T12:10:40;3.60;;;1.60;;
61640;SDS011;62201;49.966;8.342;2022-08-04T12:13:19;3.63;;;1.60;;
61640;SDS011;62201;49.966;8.342;2022-08-04T12:16:00;1.98;;;1.40;;
61640;SDS011;62201;49.966;8.342;2022-08-04T12:18:38;7.50;;;1.58;;
61640;SDS011;62201;49.966;8.342;2022-08-04T12:21:11;4.13;;;1.42;;
61640;SDS011;62201;49.966;8.342;2022-08-04T12:23:42;3.20;;;1.58;;
61640;SDS011;62201;49.966;8.342;2022-08-04T12:26:12;6.60;;;1.30;;
61640;SDS011;62201;49.966;8.342;2022-08-04T12:28:42;5.95;;;1.42;;
61640;SDS011;62201;49.966;8.342;2022-08-04T12:31:18;6.85;;;1.42;;
61640;SDS011;62201;49.966;8.342;2022-08-04T12:39:05;6.30;;;1.73;;
61640;SDS011;62201;49.966;8.342;2022-08-04T12:41:38;2.35;;;1.25;;
61640;SDS011;62201;49.966;8.342;2022-08-04T12:44:08;9.55;;;2.00;;
61640;SDS011;62201;49.966;8.342;2022-08-04T12:46:36;6.18;;;1.17;;
61640;SDS011;62201;49.966;8.342;2022-08-04T12:49:02;4.90;;;1.20;;
61640;SDS011;62201;49.966;8.342;2022-08-04T12:51:35;2.85;;;1.23;;
61640;SDS011;62201;49.966;8.342;2022-08-04T12:54:03;5.72;;;1.30;;
61640;SDS011;62201;49.966;8.342;2022-08-04T12:56:30;4.07;;;1.20;;
61640;SDS011;62201;49.966;8.342;2022-08-04T12:59:00;4.68;;;1.40;;
61640;SDS011;62201;49.966;8.342;2022-08-04T13:01:28;3.53;;;1.50;;
61640;SDS011;62201;49.966;8.342;2022-08-04T13:06:27;1.77;;;1.38;;
61640;SDS011;62201;49.966;8.342;2022-08-04T13:09:02;3.17;;;1.60;;
61640;SDS011;62201;49.966;8.342;2022-08-04T13:11:33;3.85;;;1.23;;
61640;SDS011;62201;49.966;8.342;2022-08-04T13:14:04;4.13;;;1.35;;
61640;SDS011;62201;49.966;8.342;2022-08-04T13:16:31;7.40;;;1.48;;
61640;SDS011;62201;49.966;8.342;2022-08-04T13:18:57;5.57;;;1.30;;
61640;SDS011;62201;49.966;8.342;2022-08-04T13:21:24;4.40;;;1.23;;
61640;SDS011;62201;49.966;8.342;2022-08-04T13:23:52;5.07;;;1.38;;
61640;SDS011;62201;49.966;8.342;2022-08-04T13:26:22;5.82;;;1.40;;
61640;SDS011;62201;49.966;8.342;2022-08-04T13:28:48;4.40;;;1.55;;
61640;SDS011;62201;49.966;8.342;2022-08-04T13:31:17;6.85;;;1.42;;
61640;SDS011;62201;49.966;8.342;2022-08-04T13:33:45;4.25;;;1.50;;
61640;SDS011;62201;49.966;8.342;2022-08-04T13:36:13;7.57;;;1.70;;
61640;SDS011;62201;49.966;8.342;2022-08-04T13:38:45;2.22;;;1.30;;
61640;SDS011;62201;49.966;8.342;2022-08-04T13:41:14;3.60;;;1.35;;
61640;SDS011;62201;49.966;8.342;2022-08-04T13:43:42;6.90;;;1.30;;
61640;SDS011;62201;49.966;8.342;2022-08-04T13:46:34;5.75;;;1.70;;
61640;SDS011;62201;49.966;8.342;2022-08-04T13:49:05;2.00;;;1.23;;
61640;SDS011;62201;49.966;8.342;2022-08-04T13:51:34;2.25;;;1.35;;
61640;SDS011;62201;49.966;8.342;2022-08-04T13:54:00;7.38;;;1.55;;
61640;SDS011;62201;49.966;8.342;2022-08-04T13:56:38;3.55;;;1.38;;
61640;SDS011;62201;49.966;8.342;2022-08-04T13:59:09;6.57;;;1.30;;
61640;SDS011;62201;49.966;8.342;2022-08-04T14:01:40;4.03;;;1.30;;
61640;SDS011;62201;49.966;8.342;2022-08-04T14:09:31;4.10;;;1.65;;
61640;SDS011;62201;49.966;8.342;2022-08-04T14:12:10;5.97;;;1.50;;
61640;SDS011;62201;49.966;8.342;2022-08-04T14:14:44;3.97;;;1.30;;
61640;SDS011;62201;49.966;8.342;2022-08-04T14:17:15;9.15;;;1.60;;
61640;SDS011;62201;49.966;8.342;2022-08-04T14:22:32;2.80;;;1.48;;
61640;SDS011;62201;49.966;8.342;2022-08-04T14:25:07;11.48;;;1.73;;
61640;SDS011;62201;49.966;8.342;2022-08-04T14:27:44;7.07;;;1.63;;
61640;SDS011;62201;49.966;8.342;2022-08-04T14:35:28;7.80;;;1.17;;
61640;SDS011;62201;49.966;8.342;2022-08-04T14:37:57;3.25;;;1.25;;
61640;SDS011;62201;49.966;8.342;2022-08-04T14:40:25;8.93;;;1.50;;
61640;SDS011;62201;49.966;8.342;2022-08-04T14:42:52;7.72;;;1.48;;
61640;SDS011;62201;49.966;8.342;2022-08-04T14:45:17;7.10;;;1.45;;
61640;SDS011;62201;49.966;8.342;2022-08-04T14:47:51;6.32;;;1.40;;
61640;SDS011;62201;49.966;8.342;2022-08-04T14:50:17;8.55;;;1.30;;
61640;SDS011;62201;49.966;8.342;2022-08-04T14:52:42;6.38;;;1.50;;
61640;SDS011;62201;49.966;8.342;2022-08-04T14:55:19;9.38;;;1.40;;
61640;SDS011;62201;49.966;8.342;2022-08-04T14:57:47;6.53;;;1.50;;
61640;SDS011;62201;49.966;8.342;2022-08-04T15:00:22;5.53;;;1.30;;
61640;SDS011;62201;49.966;8.342;2022-08-04T15:02:53;10.30;;;1.10;;
61640;SDS011;62201;49.966;8.342;2022-08-04T15:05:24;4.60;;;1.45;;
61640;SDS011;62201;49.966;8.342;2022-08-04T15:07:50;11.50;;;1.65;;
61640;SDS011;62201;49.966;8.342;2022-08-04T15:10:16;4.45;;;1.60;;
61640;SDS011;62201;49.966;8.342;2022-08-04T15:12:42;9.43;;;1.65;;
61640;SDS011;62201;49.966;8.342;2022-08-04T15:15:08;4.90;;;1.30;;
61640;SDS011;62201;49.966;8.342;2022-08-04T15:17:33;5.00;;;1.20;;
61640;SDS011;62201;49.966;8.342;2022-08-04T15:19:59;3.35;;;1.30;;
61640;SDS011;62201;49.966;8.342;2022-08-04T15:22:24;4.50;;;1.50;;
61640;SDS011;62201;49.966;8.342;2022-08-04T15:24:49;3.75;;;1.50;;
61640;SDS011;62201;49.966;8.342;2022-08-04T15:27:15;7.00;;;1.40;;
61640;SDS011;62201;49.966;8.342;2022-08-04T15:29:43;3.03;;;1.45;;
61640;SDS011;62201;49.966;8.342;2022-08-04T15:32:11;4.85;;;1.30;;
61640;SDS011;62201;49.966;8.342;2022-08-04T15:34:46;8.70;;;1.20;;
61640;SDS011;62201;49.966;8.342;2022-08-04T15:37:36;7.13;;;1.35;;
61640;SDS011;62201;49.966;8.342;2022-08-04T15:40:13;10.10;;;1.58;;
61640;SDS011;62201;49.966;8.342;2022-08-04T15:42:47;5.85;;;1.52;;
61640;SDS011;62201;49.966;8.342;2022-08-04T15:45:23;4.68;;;1.45;;
61640;SDS011;62201;49.966;8.342;2022-08-04T15:50:27;8.25;;;1.60;;
61640;SDS011;62201;49.966;8.342;2022-08-04T15:53:03;3.50;;;1.35;;
61640;SDS011;62201;49.966;8.342;2022-08-04T15:57:56;3.17;;;1.33;;
61640;SDS011;62201;49.966;8.342;2022-08-04T16:00:26;3.85;;;1.60;;
61640;SDS011;62201;49.966;8.342;2022-08-04T16:02:51;5.30;;;1.38;;
61640;SDS011;62201;49.966;8.342;2022-08-04T16:07:55;3.45;;;1.35;;
61640;SDS011;62201;49.966;8.342;2022-08-04T16:13:12;1.98;;;1.30;;
61640;SDS011;62201;49.966;8.342;2022-08-04T16:15:55;2.55;;;1.30;;
61640;SDS011;62201;49.966;8.342;2022-08-04T16:20:49;2.40;;;1.27;;
61640;SDS011;62201;49.966;8.342;2022-08-04T16:32:13;3.80;;;1.48;;
61640;SDS011;62201;49.966;8.342;2022-08-04T16:37:17;5.57;;;1.40;;
61640;SDS011;62201;49.966;8.342;2022-08-04T16:39:43;8.18;;;1.30;;
61640;SDS011;62201;49.966;8.342;2022-08-04T16:50:12;2.93;;;1.30;;
61640;SDS011;62201;49.966;8.342;2022-08-04T16:52:49;4.97;;;1.30;;
61640;SDS011;62201;49.966;8.342;2022-08-04T16:55:19;5.95;;;1.50;;
61640;SDS011;62201;49.966;8.342;2022-08-04T16:57:46;6.53;;;1.30;;
61640;SDS011;62201;49.966;8.342;2022-08-04T17:00:13;5.15;;;1.30;;
61640;SDS011;62201;49.966;8.342;2022-08-04T17:02:39;4.07;;;1.70;;
61640;SDS011;62201;49.966;8.342;2022-08-04T17:05:06;1.95;;;1.40;;
61640;SDS011;62201;49.966;8.342;2022-08-04T17:07:48;3.42;;;1.40;;
61640;SDS011;62201;49.966;8.342;2022-08-04T17:10:17;6.85;;;1.60;;
61640;SDS011;62201;49.966;8.342;2022-08-04T17:12:43;4.95;;;1.40;;
61640;SDS011;62201;49.966;8.342;2022-08-04T17:15:21;6.95;;;1.70;;
61640;SDS011;62201;49.966;8.342;2022-08-04T17:17:47;5.43;;;1.80;;
61640;SDS011;62201;49.966;8.342;2022-08-04T17:20:13;6.22;;;1.60;;
61640;SDS011;62201;49.966;8.342;2022-08-04T17:22:38;6.18;;;1.50;;
61640;SDS011;62201;49.966;8.342;2022-08-04T17:25:04;5.00;;;1.73;;
61640;SDS011;62201;49.966;8.342;2022-08-04T17:27:30;5.63;;;1.63;;
61640;SDS011;62201;49.966;8.342;2022-08-04T17:29:55;6.75;;;1.60;;
61640;SDS011;62201;49.966;8.342;2022-08-04T17:32:21;9.75;;;1.83;;
61640;SDS011;62201;49.966;8.342;2022-08-04T17:34:50;7.18;;;1.52;;
61640;SDS011;62201;49.966;8.342;2022-08-04T17:37:18;5.40;;;1.33;;
61640;SDS011;62201;49.966;8.342;2022-08-04T17:39:48;4.38;;;1.42;;
61640;SDS011;62201;49.966;8.342;2022-08-04T17:42:14;9.27;;;1.65;;
61640;SDS011;62201;49.966;8.342;2022-08-04T17:44:51;6.07;;;1.40;;
61640;SDS011;62201;49.966;8.342;2022-08-04T17:47:49;4.70;;;1.55;;
61640;SDS011;62201;49.966;8.342;2022-08-04T17:50:25;12.60;;;1.60;;
61640;SDS011;62201;49.966;8.342;2022-08-04T17:53:01;5.57;;;1.58;;
61640;SDS011;62201;49.966;8.342;2022-08-04T17:55:45;5.35;;;1.30;;
61640;SDS011;62201;49.966;8.342;2022-08-04T17:58:21;7.88;;;1.60;;
61640;SDS011;62201;49.966;8.342;2022-08-04T18:01:07;6.07;;;1.55;;
61640;SDS011;62201;49.966;8.342;2022-08-04T18:03:35;9.18;;;1.52;;
61640;SDS011;62201;49.966;8.342;2022-08-04T18:06:10;3.08;;;1.45;;
61640;SDS011;62201;49.966;8.342;2022-08-04T18:08:36;14.60;;;1.58;;
61640;SDS011;62201;49.966;8.342;2022-08-04T18:11:01;6.90;;;1.30;;
61640;SDS011;62201;49.966;8.342;2022-08-04T18:13:27;11.23;;;1.58;;
61640;SDS011;62201;49.966;8.342;2022-08-04T18:15:59;11.55;;;2.03;;
61640;SDS011;62201;49.966;8.342;2022-08-04T18:18:28;4.10;;;1.42;;
61640;SDS011;62201;49.966;8.342;2022-08-04T18:20:53;5.13;;;1.40;;
61640;SDS011;62201;49.966;8.342;2022-08-04T18:23:19;6.82;;;1.55;;
61640;SDS011;62201;49.966;8.342;2022-08-04T18:25:44;4.22;;;1.80;;
61640;SDS011;62201;49.966;8.342;2022-08-04T18:28:10;4.80;;;1.50;;
61640;SDS011;62201;49.966;8.342;2022-08-04T18:30:37;8.52;;;1.80;;
61640;SDS011;62201;49.966;8.342;2022-08-04T18:33:03;4.70;;;1.23;;
61640;SDS011;62201;49.966;8.342;2022-08-04T18:35:29;5.72;;;1.63;;
61640;SDS011;62201;49.966;8.342;2022-08-04T18:37:57;5.72;;;1.70;;
61640;SDS011;62201;49.966;8.342;2022-08-04T18:40:23;4.35;;;1.40;;
61640;SDS011;62201;49.966;8.342;2022-08-04T18:42:48;7.43;;;1.67;;
61640;SDS011;62201;49.966;8.342;2022-08-04T18:45:14;5.15;;;1.45;;
61640;SDS011;62201;49.966;8.342;2022-08-04T18:47:39;7.90;;;1.55;;
61640;SDS011;62201;49.966;8.342;2022-08-04T18:50:05;8.18;;;1.42;;
61640;SDS011;62201;49.966;8.342;2022-08-04T18:52:31;5.65;;;1.65;;
61640;SDS011;62201;49.966;8.342;2022-08-04T18:54:56;5.40;;;1.75;;
61640;SDS011;62201;49.966;8.342;2022-08-04T18:57:22;9.40;;;1.55;;
61640;SDS011;62201;49.966;8.342;2022-08-04T18:59:50;6.35;;;1.60;;
61640;SDS011;62201;49.966;8.342;2022-08-04T19:02:16;8.30;;;1.90;;
61640;SDS011;62201;49.966;8.342;2022-08-04T19:04:41;3.67;;;1.40;;
61640;SDS011;62201;49.966;8.342;2022-08-04T19:07:08;10.13;;;1.70;;
61640;SDS011;62201;49.966;8.342;2022-08-04T19:09:35;8.85;;;1.80;;
61640;SDS011;62201;49.966;8.342;2022-08-04T19:12:00;5.53;;;1.70;;
61640;SDS011;62201;49.966;8.342;2022-08-04T19:14:25;4.53;;;1.60;;
61640;SDS011;62201;49.966;8.342;2022-08-04T19:16:51;7.85;;;1.98;;
61640;SDS011;62201;49.966;8.342;2022-08-04T19:19:16;3.45;;;1.40;;
61640;SDS011;62201;49.966;8.342;2022-08-04T19:21:42;8.23;;;2.40;;
61640;SDS011;62201;49.966;8.342;2022-08-04T19:24:08;8.80;;;2.40;;
61640;SDS011;62201;49.966;8.342;2022-08-04T19:26:34;9.93;;;2.33;;
61640;SDS011;62201;49.966;8.342;2022-08-04T19:29:00;7.03;;;1.60;;
61640;SDS011;62201;49.966;8.342;2022-08-04T19:31:25;5.57;;;1.52;;
61640;SDS011;62201;49.966;8.342;2022-08-04T19:33:51;7.07;;;1.60;;
61640;SDS011;62201;49.966;8.342;2022-08-04T19:36:16;7.20;;;1.55;;
61640;SDS011;62201;49.966;8.342;2022-08-04T19:38:42;8.90;;;1.77;;
61640;SDS011;62201;49.966;8.342;2022-08-04T19:41:07;10.73;;;1.85;;
61640;SDS011;62201;49.966;8.342;2022-08-04T19:43:33;11.52;;;1.52;;
61640;SDS011;62201;49.966;8.342;2022-08-04T19:45:58;10.80;;;1.60;;
61640;SDS011;62201;49.966;8.342;2022-08-04T19:48:24;12.40;;;1.58;;
61640;SDS011;62201;49.966;8.342;2022-08-04T19:50:49;5.15;;;1.50;;